METAR Data
IDs: Format: Raw Decoded Include TAF

Data at: 1241 UTC 23 Sep 2018

KGRR 231153Z 00000KT 10SM MIFG FEW210 08/07 A3023 RMK AO2 SLP238 T00780067 10094 20072 53006
KGRR 231053Z 09003KT 10SM FEW210 08/06 A3021 RMK AO2 SLP232 T00780061
KGRR 230953Z 00000KT 10SM CLR 08/07 A3021 RMK AO2 SLP231 T00780067
KGRR 230853Z AUTO 00000KT 10SM R26L/3500VP6000FT CLR 08/07 A3021 RMK AO2 SLP231 T00830067 55000
KGRR 230753Z AUTO 00000KT 10SM CLR 09/07 A3020 RMK AO2 SLP230 T00890072
KGRR 230653Z AUTO 15004KT 10SM CLR 08/07 A3021 RMK AO2 SLP231 T00830072
KGRR 230553Z AUTO 00000KT 10SM CLR 09/08 A3021 RMK AO2 SLP232 T00940078 10144 20089 58004
KGRR 230453Z AUTO 00000KT 10SM CLR 10/08 A3022 RMK AO2 SLP236 T01000078 401830078
KGRR 230353Z 00000KT 10SM CLR 10/07 A3022 RMK AO2 SLP235 LAST T01000072
KGRR 230253Z 00000KT 10SM CLR 11/07 A3022 RMK AO2 SLP236 T01110072 54000
KGRR 230153Z 12003KT 10SM CLR 12/08 A3022 RMK AO2 SLP236 T01170078
KGRR 230053Z 07003KT 10SM FEW250 13/07 A3022 RMK AO2 SLP237 T01280067
KGRR 222353Z 05003KT 10SM FEW250 14/07 A3022 RMK AO2 SLP237 T01440067 10183 20144 58007
KGRR 222253Z 03004KT 10SM FEW045 FEW250 17/05 A3023 RMK AO2 SLP240 T01670050
KGRR 222153Z 06003KT 10SM FEW050 FEW250 18/04 A3024 RMK AO2 SLP241 T01780044
KGRR 222053Z 08004KT 10SM FEW050 FEW250 18/05 A3024 RMK AO2 SLP243 T01830050 56026
KGRR 221953Z 07004KT 10SM FEW048 FEW250 18/06 A3027 RMK AO2 SLP252 T01780056
KGRR 221853Z 09005KT 10SM FEW048 FEW250 16/04 A3029 RMK AO2 SLP258 T01610044
KGRR 221753Z 06005KT 10SM FEW045 FEW250 16/05 A3032 RMK AO2 SLP269 T01610050 10161 20078 58013
KGRR 221653Z 10008KT 10SM FEW040 FEW250 15/04 A3034 RMK AO2 SLP274 T01500044
KGRR 221553Z 06009KT 10SM FEW035 FEW250 14/04 A3036 RMK AO2 SLP280 T01440039
KGRR 221453Z 07013KT 10SM FEW035 FEW250 13/04 A3036 RMK AO2 SLP282 T01280044 53004
KGRR 221353Z 05012KT 10SM FEW180 FEW250 11/04 A3035 RMK AO2 SLP280 T01110039
KGRR 221253Z 05009KT 10SM FEW180 FEW250 09/05 A3035 RMK AO2 SLP280 T00940050
KGRR 221153Z 02005KT 10SM FEW180 SCT250 08/05 A3035 RMK AO2 SLP279 T00780050 10117 20078 53017
KGRR 221053Z 02005KT 10SM SCT180 08/04 A3033 RMK AO2 SLP274 T00830044
KGRR 220953Z 01009KT 10SM FEW250 09/05 A3032 RMK AO2 SLP266 T00940050
KGRR 220853Z AUTO 35005KT 10SM CLR 10/06 A3030 RMK AO2 SLP261 T01000056 51016
KGRR 220753Z AUTO 35005KT 10SM CLR 11/06 A3028 RMK AO2 SLP255 T01060056
KGRR 220653Z AUTO 36006KT 10SM BKN035 11/06 A3027 RMK AO2 SLP250 T01110056
KGRR 220553Z AUTO 36011KT 10SM SCT037 12/05 A3025 RMK AO2 SLP243 T01170050 10172 20117 51022
KGRR 220453Z AUTO 35012G17KT 10SM BKN037 13/06 A3024 RMK AO2 SLP239 T01330061 402610128
KGRR 220353Z 34011G20KT 10SM FEW034 BKN050 13/06 A3022 RMK AO2 SLP233 T01330061
KGRR 220253Z 34008KT 10SM SCT034 BKN045 14/08 A3019 RMK AO2 PK WND 32029/0157 SLP219 T01440078 53045
KGRR 220153Z 34013G22KT 10SM BKN040 OVC050 16/09 A3013 RMK AO2 SLP202 T01610089
KGRR 220053Z 31013G24KT 10SM BKN060 BKN240 17/09 A3009 RMK AO2 SLP186 T01720094